Ballarat Aerodrome, Australia

4:45 AM AEDT on March 30, 2017 (GMT +1100)
Lucas | | Change Station

Elev 1476 ft 37.55 °S, 143.78 °E | Updated 6 seconds ago

Partly Cloudy
Partly Cloudy
46.4 °F
Feels Like 46 °F
N
0.0
Wind Variable Wind from East
Gusts 0.0 mph

Today
High -- | Low -- °F
--% Chance of Precip.
Yesterday
High -- | Low -- °F
Precip. -- in
Pressure 29.92 in
Visibility -9999.0 miles
Clouds Scattered Clouds 4500 ft
Scattered Clouds 5100 ft
Scattered Clouds 6300 ft
Windchill 46 °F
Dew Point 44 °F
Humidity 93%
Rainfall 0.00 in
Snow Depth Not available.
7:36 AM 7:21 PM
Waxing Crescent, 4% visible
METAR YMAV 291730Z AUTO 28010KT //// SCT045 SCT051 SCT063 10/10 Q1013
Pressure 29.92 in
Visibility -9999.0 miles
Clouds Scattered Clouds 4500 ft
Scattered Clouds 5100 ft
Scattered Clouds 6300 ft
Windchill 46 °F
Dew Point 44 °F
Humidity 93%
Rainfall 0.00 in
Snow Depth Not available.
7:36 AM 7:21 PM
Waxing Crescent, 4% visible
METAR YMAV 291730Z AUTO 28010KT //// SCT045 SCT051 SCT063 10/10 Q1013

Get Severe Weather Alerts

Thanks for signing up!

Be on the lookout for a verification email in your inbox.

You'll start receiving the daily forecast at 8 AM.

×

10-Day Weather Forecast

×

Almanac

Astronomy

Mar. 30, 2017 Rise Set
Actual Time
Civil Twilight
Nautical Twilight
Astronomical Twilight
Moon
Length of Visible Light
Length of Day
Tomorrow will be .
, % of the Moon is Illuminated

Today's Extremes

Country Highs Country Lows

Community

WunderPhotos

Upload Photos

1,962,540 photos uploaded!

WunderBlog® & News

Nearby

Air Quality

  Air Quality AQ Index Pollutant
Not available.

Snow Depth

Station Depth Elevation

Earthquake Activity

City Distance Mag. Time & Date
Minimum magnitude displayed is 2.5.

Earthquake Activity

City Distance Mag. Time & Date
Minimum magnitude displayed is 2.5.

Coastal Water Temperatures

Place Temperature

Stations

Nearby Weather Stations

Station Location Temp. Windchill Dew Point Humidity Wind Precip. Elev Updated Type